createdAt,value
2022-08-09T08:50:27.643Z,34.10
2022-08-09T08:53:21.874Z,34.20
2022-08-09T08:56:16.822Z,34.00
2022-08-09T08:59:19.669Z,35.50
2022-08-09T09:02:30.894Z,35.90
2022-08-09T09:05:57.533Z,34.30
2022-08-09T09:08:38.095Z,34.60
2022-08-09T09:11:33.753Z,35.00
2022-08-09T09:14:27.985Z,36.50
2022-08-09T09:17:20.994Z,34.80
2022-08-09T09:20:15.406Z,34.90
2022-08-09T09:23:04.495Z,35.20
2022-08-09T09:26:01.566Z,35.50
2022-08-09T09:29:03.724Z,34.10
2022-08-09T09:32:05.852Z,35.70
2022-08-09T09:35:09.822Z,37.00
2022-08-09T09:37:59.658Z,35.30
2022-08-09T09:40:49.690Z,35.20
2022-08-09T09:44:12.573Z,37.40
2022-08-09T09:46:52.589Z,36.10
2022-08-09T09:50:13.864Z,36.10
2022-08-09T09:53:10.634Z,36.30
2022-08-09T09:56:05.305Z,35.30
2022-08-09T09:58:54.673Z,35.80
2022-08-09T10:01:43.990Z,35.70
2022-08-09T10:04:34.147Z,36.50
2022-08-09T10:07:25.117Z,36.80
2022-08-09T10:10:14.307Z,36.90
2022-08-09T10:13:07.352Z,37.20
2022-08-09T10:16:54.806Z,38.00
2022-08-09T10:19:10.261Z,38.00
2022-08-09T10:22:00.795Z,37.30
2022-08-09T10:24:49.874Z,37.10
2022-08-09T10:27:54.555Z,36.50
2022-08-09T10:32:11.863Z,37.00
2022-08-09T10:34:11.050Z,37.60
2022-08-09T10:37:04.393Z,36.20
2022-08-09T10:40:00.766Z,37.00
2022-08-09T10:42:52.978Z,37.40
2022-08-09T10:45:49.290Z,37.20
2022-08-09T10:48:55.287Z,37.30
2022-08-09T10:51:55.519Z,36.40
2022-08-09T10:54:51.104Z,36.40
2022-08-09T10:57:42.280Z,36.60
2022-08-09T11:00:51.056Z,36.80
2022-08-09T11:04:19.893Z,37.50
2022-08-09T11:07:57.990Z,38.30
2022-08-09T11:11:08.507Z,38.90
2022-08-09T11:14:32.017Z,38.10
2022-08-09T11:17:46.152Z,38.30
2022-08-09T11:20:44.878Z,37.70
2022-08-09T11:23:59.953Z,38.20
2022-08-09T11:26:54.784Z,38.20
2022-08-09T11:30:05.223Z,38.20
2022-08-09T11:33:11.835Z,40.70
2022-08-09T11:36:02.323Z,38.00
2022-08-09T11:39:02.046Z,38.50
2022-08-09T11:41:56.922Z,38.70
2022-08-09T11:44:48.337Z,38.50
2022-08-09T11:47:46.967Z,38.30
2022-08-09T11:52:54.088Z,37.70
2022-08-09T11:54:28.173Z,37.30
2022-08-09T11:57:47.950Z,36.20
2022-08-09T12:00:52.867Z,36.40
2022-08-09T12:03:55.122Z,36.80
2022-08-09T12:06:55.831Z,38.00
2022-08-09T12:09:50.523Z,38.70
2022-08-09T12:12:48.223Z,39.10
2022-08-09T12:15:49.604Z,39.20
2022-08-09T12:18:43.346Z,39.20
2022-08-09T12:21:48.605Z,39.10
2022-08-09T12:24:39.777Z,38.80
2022-08-09T12:29:15.302Z,39.20
2022-08-09T12:30:42.889Z,37.80
2022-08-09T12:33:51.029Z,37.90
2022-08-09T12:36:52.404Z,38.00
2022-08-09T12:40:01.096Z,38.80
2022-08-09T12:42:50.808Z,39.40
2022-08-09T12:45:41.897Z,39.00
2022-08-09T12:48:49.030Z,38.30
2022-08-09T12:52:01.391Z,37.90
2022-08-09T12:56:12.452Z,36.50
2022-08-09T12:58:12.041Z,36.40
2022-08-09T13:01:28.333Z,36.90
2022-08-09T13:04:36.994Z,37.90
2022-08-09T13:07:28.661Z,38.30
2022-08-09T13:10:45.718Z,37.90
2022-08-09T13:14:36.953Z,41.00
2022-08-09T13:16:56.463Z,38.80
2022-08-09T13:20:07.045Z,38.10
2022-08-09T13:23:01.008Z,37.90
2022-08-09T13:25:56.148Z,38.40
2022-08-09T13:29:03.533Z,38.30
2022-08-09T13:32:17.165Z,38.10
2022-08-09T13:35:11.583Z,37.60
2022-08-09T13:38:00.511Z,38.00
2022-08-09T13:41:55.512Z,37.60
2022-08-09T13:44:06.939Z,38.40
2022-08-09T13:50:12.691Z,37.20
2022-08-09T13:53:18.490Z,37.60
2022-08-09T13:56:07.470Z,37.80
2022-08-09T13:59:00.687Z,37.90
2022-08-09T14:01:56.185Z,37.50
2022-08-09T14:04:59.635Z,36.70
2022-08-09T14:07:50.466Z,36.70
2022-08-09T14:10:49.289Z,37.20
2022-08-09T14:14:24.515Z,35.70
2022-08-09T14:16:50.634Z,37.80
2022-08-09T14:19:39.400Z,37.70
2022-08-09T14:22:29.199Z,37.50
2022-08-09T14:25:19.988Z,36.70
2022-08-09T14:28:10.297Z,36.30
2022-08-09T14:30:59.197Z,36.30
2022-08-09T14:33:52.301Z,36.40
2022-08-09T14:36:43.938Z,36.70
2022-08-09T14:39:45.330Z,36.80
2022-08-09T14:42:37.811Z,37.10
2022-08-09T14:46:54.752Z,36.50
2022-08-09T14:48:38.492Z,36.70
2022-08-09T14:51:27.156Z,36.10
2022-08-09T14:54:22.410Z,35.90
2022-08-09T14:57:16.696Z,35.60
2022-08-09T15:00:10.367Z,35.40
2022-08-09T15:03:00.164Z,35.40
2022-08-09T15:05:52.260Z,35.30
2022-08-09T15:08:47.294Z,35.50
2022-08-09T15:11:49.576Z,35.30
2022-08-09T15:14:40.338Z,34.50
2022-08-09T15:17:30.767Z,34.40
2022-08-09T15:21:57.379Z,34.30
2022-08-09T15:23:55.824Z,34.20
2022-08-09T15:26:37.738Z,33.60
2022-08-09T15:30:55.936Z,33.50
2022-08-09T15:32:48.235Z,33.80
2022-08-09T15:35:44.417Z,33.60
2022-08-09T15:38:33.902Z,33.30
2022-08-09T15:41:22.701Z,33.00
2022-08-09T15:44:19.934Z,33.00
2022-08-09T15:47:14.232Z,32.80
2022-08-09T15:50:15.159Z,32.50
2022-08-09T15:53:06.624Z,32.40
2022-08-09T15:56:21.088Z,31.90
2022-08-09T15:59:05.138Z,31.50
